Time,TemperatureF,DewpointF,PressureIn,WindDirection,WindDirectionDegrees,WindSpeedMPH,WindSpeedGustMPH,Humidity,HourlyPrecipIn,Conditions,Clouds,dailyrainin,SoftwareType,DateUTC
2013-06-27 00:02:00,80.0,60.0,29.79,WNW,300,0.0,0.0,50,0.00,,,0.00,,2013-06-27 05:02:00,
2013-06-27 00:12:00,80.0,60.0,29.79,WNW,300,0.0,0.0,50,0.00,,,0.00,,2013-06-27 05:12:00,
2013-06-27 00:22:00,78.0,61.0,29.80,WNW,300,0.0,0.0,55,0.00,,,0.00,,2013-06-27 05:22:00,
2013-06-27 00:32:00,78.0,61.0,29.80,WNW,300,0.0,0.0,55,0.00,,,0.00,,2013-06-27 05:32:00,
2013-06-27 00:42:00,78.0,60.0,29.80,WNW,300,0.0,0.0,54,0.00,,,0.00,,2013-06-27 05:42:00,
2013-06-27 00:53:00,78.0,60.0,29.80,WNW,300,0.0,0.0,54,0.00,,,0.00,,2013-06-27 05:53:00,
2013-06-27 01:01:00,78.0,60.0,29.80,WNW,300,0.0,0.0,54,0.00,,,0.00,,2013-06-27 06:01:00,
2013-06-27 01:12:00,78.0,60.0,29.80,WNW,300,0.0,0.0,54,0.00,,,0.00,,2013-06-27 06:12:00,
2013-06-27 01:22:00,77.0,60.0,29.79,WNW,300,0.0,0.0,56,0.00,,,0.00,,2013-06-27 06:22:00,
2013-06-27 01:34:00,77.0,60.0,29.79,WNW,300,0.0,0.0,56,0.00,,,0.00,,2013-06-27 06:34:00,
2013-06-27 01:43:00,77.0,61.0,29.79,WNW,300,0.0,0.0,57,0.00,,,0.00,,2013-06-27 06:43:00,
2013-06-27 01:53:00,77.0,60.0,29.79,WNW,300,0.0,0.0,56,0.00,,,0.00,,2013-06-27 06:53:00,
2013-06-27 02:02:00,77.0,60.0,29.79,WNW,300,0.0,0.0,56,0.00,,,0.00,,2013-06-27 07:02:00,
2013-06-27 02:12:00,78.0,59.0,29.79,WNW,300,0.0,3.0,53,0.00,,,0.00,,2013-06-27 07:12:00,
2013-06-27 02:22:00,78.0,58.0,29.79,WNW,300,0.0,0.0,51,0.00,,,0.00,,2013-06-27 07:22:00,
2013-06-27 02:33:00,78.0,58.0,29.79,WNW,300,0.0,0.0,51,0.00,,,0.00,,2013-06-27 07:33:00,
2013-06-27 02:42:00,79.0,59.0,29.79,WNW,300,0.0,0.0,50,0.00,,,0.00,,2013-06-27 07:42:00,
2013-06-27 02:52:00,79.0,59.0,29.80,WNW,300,0.0,0.0,50,0.00,,,0.00,,2013-06-27 07:52:00,
2013-06-27 03:01:00,79.0,59.0,29.80,WNW,300,0.0,0.0,50,0.00,,,0.00,,2013-06-27 08:01:00,
2013-06-27 03:11:00,79.0,60.0,29.80,WNW,300,0.0,3.0,52,0.00,,,0.00,,2013-06-27 08:11:00,
2013-06-27 03:22:00,78.0,61.0,29.81,WNW,300,1.0,4.0,56,0.00,,,0.00,,2013-06-27 08:22:00,
2013-06-27 03:34:00,78.0,61.0,29.81,WNW,300,1.0,4.0,56,0.00,,,0.00,,2013-06-27 08:34:00,
2013-06-27 03:43:00,75.0,62.0,29.81,SSW,207,0.0,7.0,64,0.00,,,0.00,,2013-06-27 08:43:00,
2013-06-27 03:52:00,74.0,62.0,29.80,SSW,207,0.0,5.0,67,0.00,,,0.00,,2013-06-27 08:52:00,
2013-06-27 04:02:00,74.0,62.0,29.80,SSW,207,0.0,5.0,67,0.00,,,0.00,,2013-06-27 09:02:00,
2013-06-27 04:11:00,75.0,62.0,29.80,SSW,207,0.0,0.0,65,0.00,,,0.00,,2013-06-27 09:11:00,
2013-06-27 04:22:00,75.0,62.0,29.80,SSW,207,0.0,0.0,65,0.00,,,0.00,,2013-06-27 09:22:00,
2013-06-27 04:34:00,75.0,62.0,29.80,SSW,207,0.0,0.0,65,0.00,,,0.00,,2013-06-27 09:34:00,
2013-06-27 04:43:00,75.0,62.0,29.81,SSW,207,0.0,0.0,64,0.00,,,0.00,,2013-06-27 09:43:00,
2013-06-27 04:53:00,74.0,62.0,29.81,SSW,207,1.0,4.0,67,0.00,,,0.00,,2013-06-27 09:53:00,
2013-06-27 05:01:00,74.0,62.0,29.81,SSW,207,1.0,4.0,67,0.00,,,0.00,,2013-06-27 10:01:00,
2013-06-27 05:11:00,73.0,63.0,29.81,SSW,213,0.0,5.0,72,0.00,,,0.00,,2013-06-27 10:11:00,
2013-06-27 05:22:00,72.0,63.0,29.81,SSW,213,0.0,0.0,73,0.00,,,0.00,,2013-06-27 10:22:00,
2013-06-27 05:32:00,72.0,63.0,29.81,SSW,213,0.0,0.0,73,0.00,,,0.00,,2013-06-27 10:32:00,
2013-06-27 05:43:00,72.0,63.0,29.81,SSW,213,0.0,3.0,73,0.00,,,0.00,,2013-06-27 10:43:00,
2013-06-27 05:54:00,72.0,63.0,29.82,SSW,213,0.0,0.0,73,0.00,,,0.00,,2013-06-27 10:54:00,
2013-06-27 06:01:00,72.0,63.0,29.82,SSW,213,0.0,0.0,73,0.00,,,0.00,,2013-06-27 11:01:00,
2013-06-27 06:11:00,72.0,64.0,29.83,SSW,213,0.0,0.0,76,0.00,,,0.00,,2013-06-27 11:11:00,
2013-06-27 06:21:00,70.0,63.0,29.84,WSW,249,0.0,5.0,79,0.00,,,0.00,,2013-06-27 11:21:00,
2013-06-27 06:33:00,70.0,63.0,29.84,WSW,249,0.0,5.0,79,0.00,,,0.00,,2013-06-27 11:33:00,
2013-06-27 06:43:00,71.0,63.0,29.83,WSW,246,0.0,3.0,76,0.00,,,0.00,,2013-06-27 11:43:00,
2013-06-27 06:52:00,72.0,64.0,29.84,WSW,255,0.0,3.0,77,0.00,,,0.00,,2013-06-27 11:52:00,
2013-06-27 07:01:00,72.0,64.0,29.84,WSW,255,0.0,3.0,77,0.00,,,0.00,,2013-06-27 12:01:00,
2013-06-27 07:11:00,71.0,64.0,29.85,WSW,255,0.0,0.0,78,0.00,,,0.00,,2013-06-27 12:11:00,
2013-06-27 07:22:00,69.0,65.0,29.87,ENE,58,5.0,10.0,86,0.00,,,0.00,,2013-06-27 12:22:00,
2013-06-27 07:34:00,69.0,65.0,29.87,ENE,58,5.0,10.0,86,0.00,,,0.00,,2013-06-27 12:34:00,
2013-06-27 07:42:00,69.0,64.0,29.86,NE,44,0.0,4.0,85,0.00,,,0.00,,2013-06-27 12:42:00,
2013-06-27 08:01:00,69.0,65.0,29.83,SE,142,0.0,5.0,87,0.00,,,0.00,,2013-06-27 13:01:00,
2013-06-27 08:11:00,71.0,65.0,29.82,ESE,113,0.0,9.0,80,0.00,,,0.00,,2013-06-27 13:11:00,
2013-06-27 08:22:00,71.0,65.0,29.83,NNW,335,0.0,7.0,82,0.00,,,0.00,,2013-06-27 13:22:00,
2013-06-27 08:34:00,71.0,65.0,29.83,NNW,335,0.0,7.0,82,0.00,,,0.00,,2013-06-27 13:34:00,
2013-06-27 08:43:00,72.0,67.0,29.83,NNW,340,0.0,3.0,83,0.00,,,0.00,,2013-06-27 13:43:00,
2013-06-27 08:52:00,73.0,68.0,29.85,NW,313,0.0,5.0,84,0.00,,,0.00,,2013-06-27 13:52:00,
2013-06-27 09:01:00,73.0,68.0,29.85,NW,313,0.0,5.0,84,0.00,,,0.00,,2013-06-27 14:01:00,
2013-06-27 09:11:00,72.0,66.0,29.85,NW,313,0.0,0.0,82,0.00,,,0.00,,2013-06-27 14:11:00,
2013-06-27 09:22:00,72.0,67.0,29.88,NW,317,3.0,9.0,84,0.00,,,0.00,,2013-06-27 14:22:00,
2013-06-27 09:33:00,72.0,67.0,29.88,NW,317,3.0,9.0,84,0.00,,,0.00,,2013-06-27 14:33:00,
2013-06-27 09:43:00,72.0,67.0,29.91,WNW,290,5.0,12.0,85,0.00,,,0.00,,2013-06-27 14:43:00,
2013-06-27 09:52:00,73.0,68.0,29.91,NW,308,0.0,6.0,83,0.00,,,0.00,,2013-06-27 14:52:00,
2013-06-27 10:11:00,71.0,67.0,29.91,SW,214,0.0,4.0,86,0.01,,,0.01,,2013-06-27 15:11:00,
2013-06-27 10:22:00,70.0,66.0,29.87,ESE,117,5.0,8.0,88,0.02,,,0.02,,2013-06-27 15:22:00,
2013-06-27 10:33:00,70.0,66.0,29.87,ESE,117,5.0,8.0,88,0.02,,,0.02,,2013-06-27 15:33:00,
2013-06-27 10:42:00,70.0,67.0,29.88,South,169,0.0,7.0,89,0.03,,,0.03,,2013-06-27 15:42:00,
2013-06-27 10:52:00,70.0,67.0,29.88,WNW,299,0.0,0.0,91,0.03,,,0.03,,2013-06-27 15:52:00,
2013-06-27 11:02:00,70.0,67.0,29.88,WNW,299,0.0,0.0,91,0.03,,,0.03,,2013-06-27 16:02:00,
2013-06-27 11:11:00,70.0,67.0,29.90,NNE,17,0.0,4.0,89,0.02,,,0.03,,2013-06-27 16:11:00,
2013-06-27 11:23:00,70.0,67.0,29.92,North,355,1.0,6.0,90,0.01,,,0.03,,2013-06-27 16:23:00,
2013-06-27 11:34:00,70.0,67.0,29.92,North,355,1.0,6.0,90,0.01,,,0.03,,2013-06-27 16:34:00,
2013-06-27 11:43:00,70.0,67.0,29.89,NNE,13,0.0,4.0,90,0.01,,,0.04,,2013-06-27 16:43:00,
2013-06-27 11:53:00,69.0,66.0,29.88,ENE,67,2.0,7.0,89,0.01,,,0.04,,2013-06-27 16:53:00,
2013-06-27 12:01:00,69.0,66.0,29.88,ENE,67,2.0,7.0,89,0.01,,,0.04,,2013-06-27 17:01:00,
2013-06-27 12:11:00,70.0,67.0,29.90,WNW,301,1.0,8.0,89,0.01,,,0.04,,2013-06-27 17:11:00,
2013-06-27 12:22:00,71.0,68.0,29.91,WNW,300,0.0,0.0,90,0.02,,,0.05,,2013-06-27 17:22:00,
2013-06-27 12:33:00,71.0,68.0,29.91,WNW,300,0.0,0.0,90,0.02,,,0.05,,2013-06-27 17:33:00,
2013-06-27 12:43:00,70.0,68.0,29.90,North,5,1.0,5.0,92,0.01,,,0.05,,2013-06-27 17:43:00,
2013-06-27 12:53:00,70.0,68.0,29.91,WNW,302,4.0,9.0,93,0.02,,,0.06,,2013-06-27 17:53:00,
2013-06-27 13:01:00,70.0,68.0,29.91,WNW,302,4.0,9.0,93,0.02,,,0.06,,2013-06-27 18:01:00,
2013-06-27 13:11:00,70.0,67.0,29.92,WNW,295,4.0,7.0,90,0.02,,,0.06,,2013-06-27 18:11:00,
2013-06-27 13:22:00,69.0,66.0,29.89,ENE,78,0.0,9.0,90,0.04,,,0.09,,2013-06-27 18:22:00,
2013-06-27 13:32:00,69.0,66.0,29.89,ENE,78,0.0,9.0,90,0.04,,,0.09,,2013-06-27 18:32:00,
2013-06-27 13:44:00,69.0,66.0,29.89,ENE,78,0.0,0.0,91,0.04,,,0.09,,2013-06-27 18:44:00,
2013-06-27 13:52:00,69.0,66.0,29.89,ENE,78,0.0,0.0,91,0.03,,,0.09,,2013-06-27 18:52:00,
2013-06-27 14:01:00,69.0,66.0,29.89,ENE,78,0.0,0.0,91,0.03,,,0.09,,2013-06-27 19:01:00,
2013-06-27 14:23:00,71.0,68.0,29.89,SSW,196,0.0,1.0,91,0.00,,,0.09,,2013-06-27 19:23:00,
2013-06-27 14:33:00,71.0,68.0,29.89,SSW,196,0.0,1.0,91,0.00,,,0.09,,2013-06-27 19:33:00,
2013-06-27 14:42:00,71.0,68.0,29.89,SSW,200,0.0,0.0,90,0.00,,,0.09,,2013-06-27 19:42:00,
2013-06-27 14:53:00,72.0,69.0,29.89,SW,217,0.0,0.0,89,0.00,,,0.09,,2013-06-27 19:53:00,
2013-06-27 15:01:00,72.0,69.0,29.89,SW,217,0.0,0.0,89,0.00,,,0.09,,2013-06-27 20:01:00,
2013-06-27 15:11:00,73.0,69.0,29.89,WSW,238,0.0,5.0,88,0.00,,,0.09,,2013-06-27 20:11:00,
2013-06-27 15:22:00,74.0,70.0,29.89,SSW,211,0.0,6.0,86,0.00,,,0.09,,2013-06-27 20:22:00,
2013-06-27 15:36:00,74.0,70.0,29.89,SSW,211,0.0,6.0,86,0.00,,,0.09,,2013-06-27 20:36:00,
2013-06-27 15:45:00,76.0,71.0,29.89,SSW,211,0.0,0.0,85,0.00,,,0.09,,2013-06-27 20:45:00,
2013-06-27 15:54:00,77.0,70.0,29.89,SSW,211,0.0,0.0,78,0.00,,,0.09,,2013-06-27 20:54:00,
2013-06-27 16:13:00,79.0,71.0,29.89,SSW,211,0.0,2.0,76,0.00,,,0.09,,2013-06-27 21:13:00,
2013-06-27 16:24:00,81.0,71.0,29.89,SSW,211,1.0,3.0,72,0.00,,,0.09,,2013-06-27 21:24:00,
2013-06-27 16:35:00,81.0,71.0,29.89,SSW,211,1.0,3.0,72,0.00,,,0.09,,2013-06-27 21:35:00,
2013-06-27 16:45:00,81.0,70.0,29.89,SSW,211,0.0,0.0,70,0.00,,,0.09,,2013-06-27 21:45:00,
2013-06-27 16:53:00,81.0,71.0,29.88,SW,224,0.0,4.0,72,0.00,,,0.09,,2013-06-27 21:53:00,
2013-06-27 17:13:00,83.0,71.0,29.87,SW,221,0.0,6.0,68,0.00,,,0.09,,2013-06-27 22:13:00,
2013-06-27 17:22:00,82.0,70.0,29.87,WSW,251,0.0,3.0,68,0.00,,,0.09,,2013-06-27 22:22:00,
2013-06-27 17:33:00,82.0,70.0,29.87,WSW,251,0.0,3.0,68,0.00,,,0.09,,2013-06-27 22:33:00,
2013-06-27 17:47:00,82.0,69.0,29.86,NW,318,3.0,6.0,64,0.00,,,0.09,,2013-06-27 22:47:00,
2013-06-27 17:54:00,83.0,72.0,29.86,West,259,0.0,7.0,69,0.00,,,0.09,,2013-06-27 22:54:00,
2013-06-27 18:03:00,83.0,72.0,29.86,West,259,0.0,7.0,69,0.00,,,0.09,,2013-06-27 23:03:00,
2013-06-27 18:15:00,83.0,70.0,29.85,WNW,303,6.0,10.0,66,0.00,,,0.09,,2013-06-27 23:15:00,
2013-06-27 18:34:00,83.0,70.0,29.84,WNW,296,4.0,8.0,65,0.00,,,0.09,,2013-06-27 23:34:00,
2013-06-27 18:44:00,83.0,68.0,29.84,NW,326,3.0,8.0,60,0.00,,,0.09,,2013-06-27 23:44:00,
2013-06-27 18:54:00,83.0,67.0,29.84,NNW,336,3.0,8.0,59,0.00,,,0.09,,2013-06-27 23:54:00,
2013-06-27 19:04:00,83.0,67.0,29.84,NNW,336,3.0,8.0,59,0.00,,,0.09,,2013-06-28 00:04:00,
2013-06-27 19:13:00,83.0,68.0,29.85,NW,324,2.0,5.0,61,0.00,,,0.09,,2013-06-28 00:13:00,
2013-06-27 19:25:00,83.0,68.0,29.84,NW,306,2.0,5.0,60,0.00,,,0.09,,2013-06-28 00:25:00,
2013-06-27 19:34:00,83.0,68.0,29.84,NW,306,2.0,5.0,60,0.00,,,0.09,,2013-06-28 00:34:00,
2013-06-27 19:44:00,83.0,68.0,29.84,NW,313,1.0,5.0,61,0.00,,,0.09,,2013-06-28 00:44:00,
2013-06-27 19:54:00,83.0,69.0,29.85,WNW,292,1.0,8.0,63,0.00,,,0.09,,2013-06-28 00:54:00,
2013-06-27 20:05:00,83.0,69.0,29.85,WNW,292,1.0,8.0,63,0.00,,,0.09,,2013-06-28 01:05:00,
2013-06-27 20:13:00,82.0,68.0,29.85,WNW,289,0.0,3.0,63,0.00,,,0.09,,2013-06-28 01:13:00,
2013-06-27 20:23:00,81.0,70.0,29.85,WNW,289,0.0,0.0,70,0.00,,,0.09,,2013-06-28 01:23:00,
2013-06-27 20:35:00,81.0,70.0,29.85,WNW,289,0.0,0.0,70,0.00,,,0.09,,2013-06-28 01:35:00,
2013-06-27 20:45:00,80.0,69.0,29.84,WNW,289,0.0,4.0,70,0.00,,,0.09,,2013-06-28 01:45:00,
2013-06-27 20:54:00,79.0,66.0,29.84,WNW,300,0.0,0.0,64,0.00,,,0.09,,2013-06-28 01:54:00,
2013-06-27 21:04:00,79.0,66.0,29.84,WNW,300,0.0,0.0,64,0.00,,,0.09,,2013-06-28 02:04:00,
2013-06-27 21:16:00,78.0,66.0,29.84,WNW,300,0.0,0.0,66,0.00,,,0.09,,2013-06-28 02:16:00,
2013-06-27 21:25:00,77.0,66.0,29.84,WNW,300,0.0,0.0,69,0.00,,,0.09,,2013-06-28 02:25:00,
2013-06-27 21:35:00,77.0,66.0,29.84,WNW,300,0.0,0.0,69,0.00,,,0.09,,2013-06-28 02:35:00,
2013-06-27 21:47:00,77.0,66.0,29.85,WNW,300,0.0,0.0,69,0.00,,,0.09,,2013-06-28 02:47:00,
2013-06-27 21:53:00,76.0,65.0,29.86,WNW,300,0.0,4.0,69,0.00,,,0.09,,2013-06-28 02:53:00,
2013-06-27 22:14:00,76.0,65.0,29.87,WNW,300,0.0,0.0,68,0.00,,,0.09,,2013-06-28 03:14:00,
2013-06-27 22:25:00,76.0,65.0,29.88,WNW,300,0.0,0.0,68,0.00,,,0.09,,2013-06-28 03:25:00,
2013-06-27 22:36:00,76.0,65.0,29.88,WNW,300,0.0,0.0,68,0.00,,,0.09,,2013-06-28 03:36:00,
2013-06-27 22:44:00,75.0,63.0,29.88,WNW,300,0.0,3.0,67,0.00,,,0.09,,2013-06-28 03:44:00,
2013-06-27 23:02:00,75.0,63.0,29.88,WNW,300,0.0,0.0,66,0.00,,,0.09,,2013-06-28 04:02:00,
2013-06-27 23:11:00,75.0,64.0,29.88,WNW,300,0.0,0.0,68,0.00,,,0.09,,2013-06-28 04:11:00,
2013-06-27 23:22:00,74.0,64.0,29.88,WNW,300,0.0,2.0,70,0.00,,,0.09,,2013-06-28 04:22:00,
2013-06-27 23:33:00,74.0,64.0,29.88,WNW,300,0.0,2.0,70,0.00,,,0.09,,2013-06-28 04:33:00,
2013-06-27 23:43:00,74.0,64.0,29.88,WNW,288,0.0,2.0,71,0.00,,,0.09,,2013-06-28 04:43:00,
2013-06-27 23:53:00,74.0,64.0,29.88,SW,231,2.0,5.0,71,0.00,,,0.09,,2013-06-28 04:53:00,